createdAt,value
2023-02-15T00:01:33.441Z,93.75
2023-02-15T00:04:01.966Z,93.77
2023-02-15T00:06:30.774Z,93.47
2023-02-15T00:08:59.526Z,93.78
2023-02-15T00:11:50.638Z,94.41
2023-02-15T00:14:21.240Z,94.05
2023-02-15T00:16:52.104Z,94.40
2023-02-15T00:19:22.773Z,93.88
2023-02-15T00:21:51.399Z,94.03
2023-02-15T00:24:20.946Z,93.82
2023-02-15T00:26:50.073Z,93.87
2023-02-15T00:29:20.357Z,94.32
2023-02-15T00:31:49.188Z,94.22
2023-02-15T00:34:21.406Z,94.51
2023-02-15T00:36:50.437Z,94.65
2023-02-15T00:39:19.562Z,95.07
2023-02-15T00:41:48.349Z,95.34
2023-02-15T00:44:17.307Z,95.02
2023-02-15T00:46:45.720Z,94.69
2023-02-15T00:49:14.318Z,94.64
2023-02-15T00:51:44.212Z,94.57
2023-02-15T00:54:12.650Z,94.19
2023-02-15T00:56:41.080Z,94.60
2023-02-15T00:59:10.502Z,94.62
2023-02-15T01:01:39.200Z,94.53
2023-02-15T01:04:07.660Z,94.31
2023-02-15T01:06:36.072Z,94.44
2023-02-15T01:09:05.882Z,94.09
2023-02-15T01:11:34.293Z,94.64
2023-02-15T01:14:04.160Z,94.32
2023-02-15T01:16:33.005Z,94.09
2023-02-15T01:19:03.517Z,94.22
2023-02-15T01:21:35.175Z,93.83
2023-02-15T01:24:05.574Z,93.77
2023-02-15T01:26:33.959Z,94.14
2023-02-15T01:29:02.376Z,94.25
2023-02-15T01:31:30.937Z,93.91
2023-02-15T01:33:59.379Z,93.82
2023-02-15T01:36:27.993Z,94.05
2023-02-15T01:38:56.410Z,94.73
2023-02-15T01:41:27.519Z,94.39
2023-02-15T01:43:58.137Z,94.34
2023-02-15T01:46:32.506Z,94.67
2023-02-15T01:49:05.181Z,94.55
2023-02-15T01:51:36.758Z,95.02
2023-02-15T01:54:13.443Z,94.68
2023-02-15T01:56:44.073Z,94.93
2023-02-15T01:59:20.805Z,95.02
2023-02-15T02:01:50.664Z,94.87
2023-02-15T02:04:25.079Z,94.75
2023-02-15T02:06:55.284Z,94.68
2023-02-15T02:09:23.764Z,94.54
2023-02-15T02:11:55.027Z,94.57
2023-02-15T02:14:25.143Z,94.71
2023-02-15T02:16:58.845Z,94.85
2023-02-15T02:19:59.082Z,94.88
2023-02-15T02:22:55.819Z,94.52
2023-02-15T02:25:46.698Z,94.51
2023-02-15T02:28:34.584Z,94.38
2023-02-15T02:31:27.334Z,94.45
2023-02-15T02:34:07.547Z,94.73
2023-02-15T02:36:44.209Z,94.34
2023-02-15T02:39:23.822Z,94.52
2023-02-15T02:42:01.237Z,94.74
2023-02-15T02:44:36.794Z,94.92
2023-02-15T02:47:12.681Z,94.68
2023-02-15T02:49:44.681Z,95.15
2023-02-15T02:52:38.051Z,95.19
2023-02-15T02:55:11.548Z,95.27
2023-02-15T02:57:45.959Z,95.29
2023-02-15T03:00:16.980Z,95.21
2023-02-15T03:02:49.830Z,95.23
2023-02-15T03:05:26.209Z,95.14
2023-02-15T03:07:57.846Z,95.47
2023-02-15T03:10:27.060Z,95.27
2023-02-15T03:12:55.703Z,95.59
2023-02-15T03:15:50.410Z,95.74
2023-02-15T03:18:22.164Z,95.72
2023-02-15T03:20:53.303Z,95.95
2023-02-15T03:23:25.035Z,96.06
2023-02-15T03:25:58.232Z,95.79
2023-02-15T03:28:32.995Z,95.73
2023-02-15T03:31:05.784Z,95.79
2023-02-15T03:33:37.750Z,96.01
2023-02-15T03:36:13.770Z,95.68
2023-02-15T03:38:50.122Z,95.47
2023-02-15T03:41:21.823Z,95.21
2023-02-15T03:43:55.251Z,95.16
2023-02-15T03:46:30.391Z,95.40
2023-02-15T03:49:04.787Z,95.24
2023-02-15T03:51:38.841Z,95.38
2023-02-15T03:54:11.290Z,95.43
2023-02-15T03:56:42.471Z,95.67
2023-02-15T03:59:28.614Z,95.96
2023-02-15T04:02:08.569Z,95.87
2023-02-15T04:04:39.131Z,96.03
2023-02-15T04:07:10.193Z,95.88
2023-02-15T04:09:58.904Z,95.89
2023-02-15T04:12:27.548Z,95.85
2023-02-15T04:15:13.407Z,96.13
2023-02-15T04:17:41.949Z,95.81
2023-02-15T04:20:28.652Z,95.83
2023-02-15T04:23:16.345Z,95.93
2023-02-15T04:25:44.923Z,95.66
2023-02-15T04:28:13.434Z,95.48
2023-02-15T04:30:41.818Z,95.48
2023-02-15T04:33:10.372Z,95.52
2023-02-15T04:35:38.770Z,95.74
2023-02-15T04:38:08.560Z,96.02
2023-02-15T04:40:36.921Z,95.90
2023-02-15T04:43:05.251Z,95.93
2023-02-15T04:45:33.855Z,95.98
2023-02-15T04:48:02.223Z,95.82
2023-02-15T04:50:30.631Z,95.84
2023-02-15T04:52:59.089Z,95.64
2023-02-15T04:55:28.840Z,95.90
2023-02-15T04:57:57.605Z,95.95
2023-02-15T05:00:26.059Z,95.96
2023-02-15T05:02:54.417Z,95.93
2023-02-15T05:05:23.049Z,96.09
2023-02-15T05:07:51.411Z,95.82
2023-02-15T05:10:20.176Z,95.78
2023-02-15T05:12:50.083Z,95.95
2023-02-15T05:15:18.457Z,95.99
2023-02-15T05:17:46.935Z,95.91
2023-02-15T05:20:15.389Z,95.89
2023-02-15T05:22:43.923Z,95.99
2023-02-15T05:25:30.041Z,96.07
2023-02-15T05:28:17.529Z,96.08
2023-02-15T05:30:46.315Z,95.88
2023-02-15T05:33:14.815Z,96.11
2023-02-15T05:35:43.632Z,95.95
2023-02-15T05:38:12.018Z,96.30
2023-02-15T05:40:40.365Z,96.30
2023-02-15T05:43:10.218Z,96.41
2023-02-15T05:45:38.565Z,96.38
2023-02-15T05:48:06.992Z,96.85
2023-02-15T05:50:35.490Z,96.80
2023-02-15T05:53:04.713Z,96.67
2023-02-15T05:55:33.530Z,96.75
2023-02-15T05:58:01.913Z,96.74
2023-02-15T06:00:31.764Z,96.65
2023-02-15T06:03:00.114Z,96.93
2023-02-15T06:05:28.508Z,96.72
2023-02-15T06:07:57.049Z,96.96
2023-02-15T06:10:25.514Z,96.87
2023-02-15T06:12:54.421Z,96.86
2023-02-15T06:15:22.819Z,96.79
2023-02-15T06:17:52.662Z,97.24
2023-02-15T06:20:21.343Z,97.18
2023-02-15T06:22:50.073Z,97.09
2023-02-15T06:25:18.785Z,97.25
2023-02-15T06:27:47.220Z,97.23
2023-02-15T06:30:16.174Z,97.48
2023-02-15T06:32:44.955Z,97.41
2023-02-15T06:35:15.076Z,97.67
2023-02-15T06:37:43.610Z,97.32
2023-02-15T06:40:12.589Z,97.83
2023-02-15T06:42:41.144Z,97.55
2023-02-15T06:45:11.238Z,97.61
2023-02-15T06:47:39.803Z,97.87
2023-02-15T06:50:09.266Z,97.86
2023-02-15T06:52:39.218Z,98.21
2023-02-15T06:55:08.399Z,98.24
2023-02-15T06:57:37.440Z,98.21
2023-02-15T07:00:06.996Z,98.10
2023-02-15T07:02:35.549Z,98.01
2023-02-15T07:05:06.002Z,98.28
2023-02-15T07:07:34.626Z,98.54
2023-02-15T07:10:05.366Z,98.43
2023-02-15T07:12:46.613Z,99.01
2023-02-15T07:15:17.102Z,100.00
2023-02-15T07:17:46.657Z,100.00
2023-02-15T07:20:18.012Z,100.00
2023-02-15T07:22:52.116Z,96.00
2023-02-15T07:25:22.335Z,87.31
2023-02-15T07:27:57.017Z,81.97
2023-02-15T07:30:26.267Z,75.66
2023-02-15T07:33:14.710Z,69.83
2023-02-15T07:35:49.560Z,64.32
2023-02-15T07:38:18.651Z,58.77
2023-02-15T07:40:49.030Z,56.43
2023-02-15T07:43:17.665Z,54.38
2023-02-15T07:45:46.248Z,52.43
2023-02-15T07:48:14.930Z,50.91
2023-02-15T07:50:43.793Z,47.58
2023-02-15T07:53:12.550Z,46.95
2023-02-15T07:55:41.225Z,45.90
2023-02-15T07:58:11.123Z,44.79
2023-02-15T08:00:53.985Z,42.54
2023-02-15T08:03:27.792Z,40.84
2023-02-15T08:05:59.354Z,40.24
2023-02-15T08:08:31.931Z,39.65
2023-02-15T08:11:19.704Z,38.82
2023-02-15T08:14:00.171Z,37.57
2023-02-15T08:16:31.668Z,36.77
2023-02-15T08:19:03.405Z,36.11
2023-02-15T08:21:32.959Z,32.41
2023-02-15T08:24:01.567Z,33.01
2023-02-15T08:26:31.508Z,31.93
2023-02-15T08:29:01.986Z,31.39
2023-02-15T08:31:31.489Z,28.60
2023-02-15T08:34:00.277Z,29.57
2023-02-15T08:36:30.643Z,29.54
2023-02-15T08:39:00.312Z,29.78
2023-02-15T08:41:31.352Z,29.05
2023-02-15T08:44:03.470Z,28.95
2023-02-15T08:46:33.913Z,28.11
2023-02-15T08:49:03.079Z,28.04
2023-02-15T08:51:33.527Z,27.72
2023-02-15T08:54:03.620Z,26.59
2023-02-15T08:56:35.351Z,25.76
2023-02-15T08:59:06.402Z,25.54
2023-02-15T09:01:36.669Z,24.67
2023-02-15T09:04:09.643Z,25.16
2023-02-15T09:06:39.072Z,25.76
2023-02-15T09:09:09.016Z,25.63
2023-02-15T09:11:39.061Z,25.75
2023-02-15T09:14:14.368Z,26.60
2023-02-15T09:16:45.775Z,26.98
2023-02-15T09:19:14.793Z,26.82
2023-02-15T09:21:43.983Z,25.92
2023-02-15T09:24:16.333Z,25.27
2023-02-15T09:26:47.217Z,24.74
2023-02-15T09:29:18.604Z,25.40
2023-02-15T09:31:49.756Z,23.93
2023-02-15T09:34:21.803Z,24.69
2023-02-15T09:36:52.873Z,23.71
2023-02-15T09:39:24.703Z,22.85
2023-02-15T09:42:26.798Z,22.63
2023-02-15T09:45:23.832Z,22.85
2023-02-15T09:48:28.724Z,22.60
2023-02-15T09:51:09.808Z,24.58
2023-02-15T09:53:57.722Z,22.87
2023-02-15T09:56:32.906Z,22.66
2023-02-15T09:59:12.561Z,23.35
2023-02-15T10:01:56.480Z,22.58
2023-02-15T10:04:45.426Z,22.94
2023-02-15T10:07:26.527Z,21.55
2023-02-15T10:10:08.829Z,19.20
2023-02-15T10:12:59.550Z,18.79
2023-02-15T10:15:39.850Z,17.81
2023-02-15T10:18:25.430Z,16.92
2023-02-15T10:21:03.669Z,17.11
2023-02-15T10:23:44.796Z,16.97
2023-02-15T10:26:19.574Z,17.89
2023-02-15T10:28:51.635Z,18.47
2023-02-15T10:31:27.853Z,18.33
2023-02-15T10:34:16.842Z,18.40
2023-02-15T10:37:13.430Z,16.60
2023-02-15T10:39:59.788Z,16.09
2023-02-15T10:42:38.961Z,15.43
2023-02-15T10:45:21.321Z,15.14
2023-02-15T10:48:15.172Z,16.01
2023-02-15T10:50:51.444Z,15.48
2023-02-15T10:53:38.367Z,16.58
2023-02-15T10:56:16.369Z,17.25
2023-02-15T10:58:59.995Z,16.87
2023-02-15T11:01:37.098Z,16.52
2023-02-15T11:04:25.001Z,15.94
2023-02-15T11:06:58.690Z,14.84
2023-02-15T11:09:37.399Z,15.53
2023-02-15T11:12:14.444Z,14.55
2023-02-15T11:14:48.936Z,14.23
2023-02-15T11:17:21.623Z,15.20
2023-02-15T11:19:59.029Z,15.12
2023-02-15T11:22:30.090Z,16.20
2023-02-15T11:25:02.668Z,16.25
2023-02-15T11:27:34.822Z,16.63
2023-02-15T11:30:10.325Z,17.91
2023-02-15T11:32:42.128Z,17.95
2023-02-15T11:35:23.417Z,19.05
2023-02-15T11:38:00.686Z,18.70
2023-02-15T11:40:32.273Z,19.77
2023-02-15T11:43:06.181Z,19.85
2023-02-15T11:45:36.364Z,18.38
2023-02-15T11:48:13.007Z,17.57
2023-02-15T11:50:43.673Z,15.47
2023-02-15T11:53:16.664Z,15.04
2023-02-15T11:55:46.592Z,15.00
2023-02-15T11:58:35.146Z,14.50
2023-02-15T12:01:10.612Z,14.19
2023-02-15T12:03:47.961Z,14.47
2023-02-15T12:06:24.132Z,15.55
2023-02-15T12:09:07.204Z,15.78
2023-02-15T12:11:38.103Z,15.99
2023-02-15T12:14:09.958Z,16.38
2023-02-15T12:16:44.745Z,16.48
2023-02-15T12:19:27.344Z,17.71
2023-02-15T12:21:56.630Z,19.09
2023-02-15T12:24:29.504Z,17.65
2023-02-15T12:27:01.573Z,18.04
2023-02-15T12:29:35.204Z,20.00
2023-02-15T12:32:05.750Z,18.61
2023-02-15T12:34:40.470Z,17.92
2023-02-15T12:37:16.908Z,17.20
2023-02-15T12:39:58.199Z,15.95
2023-02-15T12:42:28.274Z,15.67
2023-02-15T12:45:00.140Z,16.84
2023-02-15T12:47:31.067Z,17.10
2023-02-15T12:50:17.948Z,16.66
2023-02-15T12:52:49.485Z,17.21
2023-02-15T12:55:24.988Z,17.48
2023-02-15T12:58:08.563Z,16.95
2023-02-15T13:00:37.816Z,16.66
2023-02-15T13:03:06.393Z,16.00
2023-02-15T13:05:39.460Z,17.79
2023-02-15T13:08:14.386Z,19.02
2023-02-15T13:10:56.116Z,21.39
2023-02-15T13:13:27.640Z,21.20
2023-02-15T13:16:00.447Z,19.42
2023-02-15T13:18:33.903Z,17.12
2023-02-15T13:21:10.620Z,17.78
2023-02-15T13:23:41.782Z,17.69
2023-02-15T13:26:17.896Z,17.57
2023-02-15T13:28:49.281Z,18.98
2023-02-15T13:31:21.305Z,19.36
2023-02-15T13:33:54.088Z,20.15
2023-02-15T13:36:29.346Z,20.40
2023-02-15T13:39:09.582Z,21.03
2023-02-15T13:41:50.372Z,19.62
2023-02-15T13:44:27.968Z,18.25
2023-02-15T13:47:14.147Z,16.84
2023-02-15T13:49:55.475Z,15.96
2023-02-15T13:52:26.012Z,17.59
2023-02-15T13:55:15.499Z,18.38
2023-02-15T13:58:03.414Z,21.61
2023-02-15T14:00:45.124Z,20.10
2023-02-15T14:03:32.976Z,19.50
2023-02-15T14:06:19.565Z,17.97
2023-02-15T14:09:05.273Z,16.81
2023-02-15T14:11:43.448Z,16.24
2023-02-15T14:14:35.173Z,18.30
2023-02-15T14:17:11.628Z,18.62
2023-02-15T14:19:47.000Z,18.99
2023-02-15T14:22:23.284Z,18.28
2023-02-15T14:25:16.185Z,18.50
2023-02-15T14:27:55.063Z,18.74
2023-02-15T14:30:29.237Z,18.69
2023-02-15T14:33:02.353Z,19.33
2023-02-15T14:35:32.441Z,19.81
2023-02-15T14:38:07.108Z,20.00
2023-02-15T14:41:00.463Z,20.73
2023-02-15T14:43:40.997Z,20.64
2023-02-15T14:46:18.368Z,21.71
2023-02-15T14:48:50.140Z,22.97
2023-02-15T14:51:57.745Z,25.21
2023-02-15T14:54:58.850Z,26.58
2023-02-15T14:57:36.423Z,28.10
2023-02-15T15:00:32.403Z,29.15
2023-02-15T15:03:02.816Z,29.42
2023-02-15T15:05:35.929Z,30.32
2023-02-15T15:08:06.478Z,30.53
2023-02-15T15:10:44.511Z,30.98
2023-02-15T15:13:50.399Z,31.45
2023-02-15T15:16:33.172Z,31.89
2023-02-15T15:19:04.242Z,32.71
2023-02-15T15:21:58.473Z,32.66
2023-02-15T15:24:53.147Z,32.96
2023-02-15T15:27:43.826Z,33.17
2023-02-15T15:31:04.154Z,33.53
2023-02-15T15:34:11.874Z,33.81
2023-02-15T15:37:22.831Z,34.22
2023-02-15T15:40:39.667Z,34.72
2023-02-15T15:44:02.422Z,35.10
2023-02-15T15:46:49.087Z,35.59
2023-02-15T15:49:20.991Z,35.74
2023-02-15T15:51:51.154Z,36.06
2023-02-15T15:54:21.781Z,36.23
2023-02-15T15:56:55.161Z,36.50
2023-02-15T15:59:26.860Z,37.00
2023-02-15T16:01:56.040Z,37.06
2023-02-15T16:04:27.387Z,37.06
2023-02-15T16:06:55.983Z,37.77
2023-02-15T16:09:26.607Z,37.74
2023-02-15T16:12:01.241Z,38.28
2023-02-15T16:14:33.777Z,38.61
2023-02-15T16:17:04.074Z,39.55
2023-02-15T16:19:36.054Z,40.31
2023-02-15T16:22:08.585Z,41.16
2023-02-15T16:24:53.371Z,41.96
2023-02-15T16:27:35.318Z,43.00
2023-02-15T16:30:24.234Z,42.79
2023-02-15T16:32:55.471Z,43.40
2023-02-15T16:35:25.177Z,43.66
2023-02-15T16:37:53.524Z,44.18
2023-02-15T16:40:45.228Z,44.86
2023-02-15T16:43:20.152Z,45.90
2023-02-15T16:45:49.072Z,46.73
2023-02-15T16:48:22.883Z,47.55
2023-02-15T16:50:55.105Z,48.92
2023-02-15T16:53:26.657Z,49.97
2023-02-15T16:55:57.302Z,50.52
2023-02-15T16:58:31.796Z,51.01
2023-02-15T17:01:03.681Z,51.72
2023-02-15T17:03:32.595Z,52.18
2023-02-15T17:06:03.728Z,52.74
2023-02-15T17:08:33.673Z,53.12
2023-02-15T17:11:17.980Z,53.47
2023-02-15T17:14:23.020Z,53.85
2023-02-15T17:16:54.659Z,54.11
2023-02-15T17:19:25.685Z,54.66
2023-02-15T17:21:56.857Z,55.17
2023-02-15T17:24:35.277Z,55.59
2023-02-15T17:27:09.327Z,56.12
2023-02-15T17:29:42.164Z,54.96
2023-02-15T17:32:19.851Z,55.96
2023-02-15T17:35:04.163Z,55.36
2023-02-15T17:37:44.344Z,55.07
2023-02-15T17:40:21.614Z,55.39
2023-02-15T17:42:50.374Z,54.71
2023-02-15T17:45:21.140Z,54.23
2023-02-15T17:47:50.849Z,53.50
2023-02-15T17:50:23.322Z,53.70
2023-02-15T17:52:53.878Z,53.36
2023-02-15T17:55:38.816Z,53.44
2023-02-15T17:58:10.100Z,54.11
2023-02-15T18:01:00.365Z,54.07
2023-02-15T18:03:59.086Z,54.50
2023-02-15T18:06:45.786Z,54.08
2023-02-15T18:09:34.002Z,54.21
2023-02-15T18:12:02.975Z,54.52
2023-02-15T18:14:31.643Z,54.25
2023-02-15T18:17:01.350Z,54.24
2023-02-15T18:19:29.771Z,54.67
2023-02-15T18:21:58.180Z,55.53
2023-02-15T18:24:27.725Z,55.24
2023-02-15T18:26:58.105Z,55.56
2023-02-15T18:29:26.466Z,56.26
2023-02-15T18:31:57.843Z,56.38
2023-02-15T18:34:30.733Z,56.02
2023-02-15T18:37:02.443Z,56.72
2023-02-15T18:39:39.971Z,57.02
2023-02-15T18:42:20.397Z,56.81
2023-02-15T18:44:49.087Z,57.54
2023-02-15T18:47:17.544Z,57.69
2023-02-15T18:49:47.357Z,57.08
2023-02-15T18:52:17.926Z,57.75
2023-02-15T18:54:47.019Z,57.84
2023-02-15T18:57:17.097Z,57.87
2023-02-15T18:59:45.483Z,58.11
2023-02-15T19:02:14.689Z,58.76
2023-02-15T19:04:43.093Z,59.66
2023-02-15T19:07:18.748Z,59.77
2023-02-15T19:09:53.222Z,59.86
2023-02-15T19:12:21.771Z,60.29
2023-02-15T19:14:51.820Z,59.74
2023-02-15T19:17:22.721Z,59.66
2023-02-15T19:19:52.715Z,59.92
2023-02-15T19:22:26.792Z,59.42
2023-02-15T19:24:58.113Z,59.80
2023-02-15T19:27:29.872Z,60.14
2023-02-15T19:30:00.651Z,59.84
2023-02-15T19:32:30.522Z,59.80
2023-02-15T19:34:58.970Z,60.20
2023-02-15T19:37:37.198Z,60.58
2023-02-15T19:40:08.935Z,60.28
2023-02-15T19:42:37.253Z,60.98
2023-02-15T19:45:14.598Z,61.22
2023-02-15T19:47:43.596Z,61.23
2023-02-15T19:50:16.482Z,61.67
2023-02-15T19:52:47.416Z,61.48
2023-02-15T19:55:24.208Z,61.87
2023-02-15T19:57:55.337Z,62.00
2023-02-15T20:00:27.054Z,61.60
2023-02-15T20:02:56.735Z,62.74
2023-02-15T20:05:27.431Z,62.79
2023-02-15T20:07:58.275Z,63.25
2023-02-15T20:10:30.059Z,63.36
2023-02-15T20:12:59.452Z,63.61
2023-02-15T20:15:29.531Z,63.47
2023-02-15T20:17:59.593Z,63.08
2023-02-15T20:20:33.150Z,63.58
2023-02-15T20:23:03.272Z,63.23
2023-02-15T20:25:34.148Z,63.15
2023-02-15T20:28:02.969Z,63.13
2023-02-15T20:30:32.960Z,63.27
2023-02-15T20:33:01.395Z,63.51
2023-02-15T20:35:30.250Z,64.54
2023-02-15T20:38:01.250Z,64.92
2023-02-15T20:40:33.432Z,66.08
2023-02-15T20:43:02.585Z,66.72
2023-02-15T20:45:33.721Z,67.50
2023-02-15T20:48:02.551Z,68.34
2023-02-15T20:50:33.308Z,69.24
2023-02-15T20:53:03.149Z,69.36
2023-02-15T20:55:33.415Z,69.99
2023-02-15T20:58:01.954Z,69.89
2023-02-15T21:00:35.287Z,70.13
2023-02-15T21:03:11.546Z,69.71
2023-02-15T21:05:40.622Z,70.44
2023-02-15T21:08:14.116Z,70.74
2023-02-15T21:10:45.570Z,70.33
2023-02-15T21:13:21.356Z,71.20
2023-02-15T21:15:51.045Z,70.92
2023-02-15T21:18:22.681Z,70.92
2023-02-15T21:20:53.841Z,71.33
2023-02-15T21:23:25.861Z,70.98
2023-02-15T21:25:57.241Z,71.22
2023-02-15T21:28:27.891Z,71.51
2023-02-15T21:30:58.527Z,71.88
2023-02-15T21:33:27.589Z,72.28
2023-02-15T21:35:58.206Z,72.04
2023-02-15T21:38:30.285Z,71.86
2023-02-15T21:41:20.288Z,72.48
2023-02-15T21:44:06.918Z,72.79
2023-02-15T21:46:53.114Z,72.75
2023-02-15T21:49:21.852Z,73.49
2023-02-15T21:52:09.625Z,73.43
2023-02-15T21:54:39.952Z,72.52
2023-02-15T21:57:15.146Z,72.76
2023-02-15T21:59:43.995Z,73.04
2023-02-15T22:02:36.163Z,73.02
2023-02-15T22:05:16.358Z,72.87
2023-02-15T22:08:03.172Z,73.14
2023-02-15T22:10:42.079Z,73.47
2023-02-15T22:13:18.543Z,73.75
2023-02-15T22:15:52.982Z,74.24
2023-02-15T22:18:26.303Z,74.96
2023-02-15T22:21:01.079Z,75.50
2023-02-15T22:23:56.929Z,75.77
2023-02-15T22:26:26.374Z,76.50
2023-02-15T22:29:02.226Z,76.13
2023-02-15T22:31:31.311Z,76.03
2023-02-15T22:34:05.591Z,74.89
2023-02-15T22:36:40.096Z,74.57
2023-02-15T22:39:08.646Z,74.33
2023-02-15T22:41:37.095Z,73.55
2023-02-15T22:44:07.050Z,73.47
2023-02-15T22:46:35.800Z,74.13
2023-02-15T22:49:04.412Z,73.28
2023-02-15T22:51:32.791Z,73.32
2023-02-15T22:54:01.364Z,73.07
2023-02-15T22:56:37.951Z,73.40
2023-02-15T22:59:14.981Z,72.42
2023-02-15T23:01:43.690Z,72.60
2023-02-15T23:04:18.416Z,72.73
2023-02-15T23:06:47.432Z,72.78
2023-02-15T23:09:16.277Z,72.19
2023-02-15T23:11:45.825Z,72.37
2023-02-15T23:14:27.209Z,72.42
2023-02-15T23:16:56.035Z,72.42
2023-02-15T23:19:24.447Z,73.36
2023-02-15T23:21:53.349Z,73.22
2023-02-15T23:24:23.882Z,72.92
2023-02-15T23:26:52.640Z,72.73
2023-02-15T23:29:24.326Z,73.42
2023-02-15T23:31:54.529Z,73.13
2023-02-15T23:34:27.556Z,73.47
2023-02-15T23:36:56.582Z,74.41
2023-02-15T23:39:44.799Z,74.83
2023-02-15T23:42:16.653Z,74.63
2023-02-15T23:44:47.777Z,74.68
2023-02-15T23:47:41.652Z,74.58
2023-02-15T23:50:17.704Z,75.40
2023-02-15T23:52:46.556Z,76.03
2023-02-15T23:55:15.848Z,75.99
2023-02-15T23:57:45.341Z,76.25
